Time;durP1;ratioP1;P1;durP2;ratioP2;P2;SDS_P1;SDS_P2;PMS_P1;PMS_P2;Temp;Humidity;BMP_temperature;BMP_pressure;BME280_temperature;BME280_humidity;BME280_pressure;Samples;Min_cycle;Max_cycle;Signal;HPM_P1;HPM_P2
2022/02/19 00:00:07;;;;;;;7.03;1.95;;;;;;;;;;5031292;28;20025;-77
2022/02/19 00:02:33;;;;;;;5.95;1.35;;;;;;;;;;5017256;28;20080;-79
2022/02/19 00:04:59;;;;;;;5.28;1.67;;;;;;;;;;5017371;28;20026;-77
2022/02/19 00:07:25;;;;;;;7.75;1.80;;;;;;;;;;5035271;28;20022;-78
2022/02/19 00:09:51;;;;;;;9.60;1.88;;;;;;;;;;5035447;28;20152;-78
2022/02/19 00:12:17;;;;;;;5.93;1.65;;;;;;;;;;5035161;28;20389;-78
2022/02/19 00:14:43;;;;;;;6.80;1.50;;;;;;;;;;5016246;28;20032;-78
2022/02/19 00:17:09;;;;;;;4.95;1.45;;;;;;;;;;5015646;28;20559;-78
2022/02/19 00:19:35;;;;;;;4.28;1.27;;;;;;;;;;5014178;28;20025;-77
2022/02/19 00:22:01;;;;;;;6.18;1.80;;;;;;;;;;5016194;28;20072;-79
2022/02/19 00:24:27;;;;;;;7.18;1.92;;;;;;;;;;5015004;28;20022;-78
2022/02/19 00:26:54;;;;;;;5.32;1.70;;;;;;;;;;5014617;28;20030;-77
2022/02/19 00:29:20;;;;;;;5.78;1.52;;;;;;;;;;5015372;28;20036;-78
2022/02/19 00:31:46;;;;;;;5.95;1.65;;;;;;;;;;5032156;28;20076;-78
2022/02/19 00:34:12;;;;;;;7.30;1.77;;;;;;;;;;5017037;28;20095;-80
2022/02/19 00:36:38;;;;;;;6.15;1.33;;;;;;;;;;5034051;28;20061;-78
2022/02/19 00:39:04;;;;;;;7.07;1.85;;;;;;;;;;5034007;28;20065;-76
2022/02/19 00:41:30;;;;;;;5.45;1.45;;;;;;;;;;5033931;28;20051;-76
2022/02/19 00:43:57;;;;;;;4.03;1.17;;;;;;;;;;5034663;28;20496;-78
2022/02/19 00:46:24;;;;;;;6.70;1.60;;;;;;;;;;5002135;28;20040;-76
2022/02/19 00:48:50;;;;;;;6.07;1.73;;;;;;;;;;5033376;28;20071;-77
2022/02/19 00:51:16;;;;;;;5.28;1.40;;;;;;;;;;5034455;28;20029;-77
2022/02/19 00:53:42;;;;;;;8.57;2.03;;;;;;;;;;5029747;28;20025;-76
2022/02/19 00:56:09;;;;;;;8.02;1.88;;;;;;;;;;5014633;28;20140;-77
2022/02/19 00:58:38;;;;;;;6.65;1.60;;;;;;;;;;5027228;28;20053;-76
2022/02/19 01:01:05;;;;;;;7.43;1.42;;;;;;;;;;5016943;28;20116;-78
2022/02/19 01:03:31;;;;;;;5.53;1.40;;;;;;;;;;5014482;28;20026;-77
2022/02/19 01:05:58;;;;;;;5.25;1.33;;;;;;;;;;5013501;28;20131;-78
2022/02/19 01:08:23;;;;;;;7.05;1.60;;;;;;;;;;5014786;28;20068;-76
2022/02/19 01:10:50;;;;;;;6.30;1.48;;;;;;;;;;5014242;28;20540;-78
2022/02/19 01:13:16;;;;;;;4.72;1.40;;;;;;;;;;5013260;28;20390;-79
2022/02/19 01:15:42;;;;;;;9.57;1.67;;;;;;;;;;5012612;28;20029;-76
2022/02/19 01:18:08;;;;;;;5.25;1.70;;;;;;;;;;5028664;28;20501;-77
2022/02/19 01:20:34;;;;;;;8.35;1.23;;;;;;;;;;5028967;28;20477;-76
2022/02/19 01:23:01;;;;;;;7.50;1.77;;;;;;;;;;5013933;28;20354;-77
2022/02/19 01:25:27;;;;;;;5.20;1.77;;;;;;;;;;5013909;28;20481;-77
2022/02/19 01:27:53;;;;;;;6.57;1.83;;;;;;;;;;5014283;28;20105;-78
2022/02/19 01:30:19;;;;;;;6.15;1.58;;;;;;;;;;5012501;28;20394;-80
2022/02/19 01:32:45;;;;;;;3.95;1.40;;;;;;;;;;5013918;28;20167;-77
2022/02/19 01:35:11;;;;;;;7.03;1.70;;;;;;;;;;5017895;28;20029;-77
2022/02/19 01:37:37;;;;;;;6.75;1.60;;;;;;;;;;5027678;28;20037;-77
2022/02/19 01:40:03;;;;;;;6.10;1.48;;;;;;;;;;5033047;28;20049;-77
2022/02/19 01:42:30;;;;;;;6.90;1.42;;;;;;;;;;5015622;28;20045;-77
2022/02/19 01:44:56;;;;;;;5.43;1.50;;;;;;;;;;5012894;28;20612;-76
2022/02/19 01:47:22;;;;;;;7.05;1.95;;;;;;;;;;5012472;28;20409;-76
2022/02/19 01:49:48;;;;;;;7.57;1.55;;;;;;;;;;5014564;28;20496;-76
2022/02/19 01:52:16;;;;;;;7.50;2.33;;;;;;;;;;5013460;28;20033;-76
2022/02/19 01:54:43;;;;;;;7.32;1.83;;;;;;;;;;5013288;28;20077;-78
2022/02/19 01:57:09;;;;;;;4.43;1.50;;;;;;;;;;5032017;28;20022;-77
2022/02/19 01:59:35;;;;;;;6.32;1.30;;;;;;;;;;5006215;28;20073;-77
2022/02/19 02:02:02;;;;;;;6.75;1.90;;;;;;;;;;5013024;28;20125;-77
2022/02/19 02:04:28;;;;;;;5.38;1.23;;;;;;;;;;5014218;28;20030;-77
2022/02/19 02:06:54;;;;;;;4.25;1.55;;;;;;;;;;5013660;28;20032;-77
2022/02/19 02:09:20;;;;;;;5.13;1.40;;;;;;;;;;5013257;28;20072;-77
2022/02/19 02:11:46;;;;;;;5.68;1.15;;;;;;;;;;5029162;28;20036;-76
2022/02/19 02:14:13;;;;;;;4.68;1.63;;;;;;;;;;5032960;28;20032;-75
2022/02/19 02:16:40;;;;;;;5.28;1.60;;;;;;;;;;5019521;28;20026;-77
2022/02/19 02:19:08;;;;;;;8.95;1.77;;;;;;;;;;5032135;28;20033;-77
2022/02/19 02:21:34;;;;;;;5.50;1.15;;;;;;;;;;5013125;28;20037;-76
2022/02/19 02:24:00;;;;;;;4.78;1.23;;;;;;;;;;5032633;28;20022;-76
2022/02/19 02:26:26;;;;;;;6.40;1.48;;;;;;;;;;5017455;28;20079;-76
2022/02/19 02:28:52;;;;;;;4.20;1.10;;;;;;;;;;5013812;28;20108;-77
2022/02/19 02:31:19;;;;;;;4.28;1.33;;;;;;;;;;5011533;28;20374;-76
2022/02/19 02:33:46;;;;;;;5.35;1.73;;;;;;;;;;5012456;28;20481;-80
2022/02/19 02:36:13;;;;;;;4.43;1.45;;;;;;;;;;5012748;28;20509;-77
2022/02/19 02:38:39;;;;;;;6.68;1.48;;;;;;;;;;5012464;28;20029;-76
2022/02/19 02:41:05;;;;;;;4.38;1.30;;;;;;;;;;5012201;28;20038;-78
2022/02/19 02:43:31;;;;;;;5.82;1.20;;;;;;;;;;5012709;28;20076;-77
2022/02/19 02:45:57;;;;;;;4.78;1.40;;;;;;;;;;5013473;28;20030;-77
2022/02/19 02:48:24;;;;;;;4.72;1.45;;;;;;;;;;5012495;28;20026;-79
2022/02/19 02:50:50;;;;;;;3.63;1.13;;;;;;;;;;5012527;28;20037;-77
2022/02/19 02:53:17;;;;;;;7.30;1.42;;;;;;;;;;5012475;28;20033;-78
2022/02/19 02:55:43;;;;;;;6.03;1.15;;;;;;;;;;5012464;28;20076;-78
2022/02/19 02:58:09;;;;;;;6.35;1.50;;;;;;;;;;5012448;28;20026;-76
2022/02/19 03:00:35;;;;;;;3.90;1.05;;;;;;;;;;5013851;28;20024;-77
2022/02/19 03:03:01;;;;;;;4.00;1.30;;;;;;;;;;5012029;28;20038;-77
2022/02/19 03:05:27;;;;;;;5.20;1.40;;;;;;;;;;5018808;28;20032;-77
2022/02/19 03:07:53;;;;;;;4.20;1.27;;;;;;;;;;5031970;28;20033;-77
2022/02/19 03:10:19;;;;;;;5.15;1.35;;;;;;;;;;5031361;28;20049;-77
2022/02/19 03:12:46;;;;;;;5.70;1.20;;;;;;;;;;5030698;28;20120;-76
2022/02/19 03:15:18;;;;;;;4.82;1.38;;;;;;;;;;5031236;28;20014;-76
2022/02/19 03:17:44;;;;;;;4.63;1.13;;;;;;;;;;5012117;28;20413;-76
2022/02/19 03:20:10;;;;;;;6.70;1.40;;;;;;;;;;5012740;28;20018;-77
2022/02/19 03:22:36;;;;;;;4.03;1.23;;;;;;;;;;5031785;28;20440;-77
2022/02/19 03:25:03;;;;;;;4.45;1.20;;;;;;;;;;5021129;28;20029;-79
2022/02/19 03:27:29;;;;;;;7.28;1.80;;;;;;;;;;5012264;28;20061;-76
2022/02/19 03:29:55;;;;;;;5.38;1.30;;;;;;;;;;5011708;28;20512;-75
2022/02/19 03:32:21;;;;;;;5.45;1.52;;;;;;;;;;5012219;28;20510;-76
2022/02/19 03:34:47;;;;;;;5.40;1.52;;;;;;;;;;5031438;28;20396;-80
2022/02/19 03:37:13;;;;;;;4.68;1.30;;;;;;;;;;5031556;28;20496;-77
2022/02/19 03:39:39;;;;;;;4.70;1.38;;;;;;;;;;5031003;28;20033;-76
2022/02/19 03:42:05;;;;;;;5.05;1.63;;;;;;;;;;5031417;28;20041;-77
2022/02/19 03:44:31;;;;;;;6.68;1.70;;;;;;;;;;5031662;28;20104;-76
2022/02/19 03:46:57;;;;;;;4.95;1.52;;;;;;;;;;5031438;28;20500;-77
2022/02/19 03:49:23;;;;;;;4.55;1.13;;;;;;;;;;5031083;28;20029;-76
2022/02/19 03:51:49;;;;;;;5.50;1.20;;;;;;;;;;5013008;28;20033;-78
2022/02/19 03:54:15;;;;;;;4.75;1.60;;;;;;;;;;5030893;28;20021;-76
2022/02/19 03:56:43;;;;;;;3.88;1.02;;;;;;;;;;5031423;28;20060;-77
2022/02/19 03:59:14;;;;;;;5.32;1.27;;;;;;;;;;5001109;28;20038;-78
2022/02/19 04:01:40;;;;;;;4.78;1.35;;;;;;;;;;5010890;28;20037;-76
2022/02/19 04:04:06;;;;;;;5.88;1.48;;;;;;;;;;5011524;28;20030;-78
2022/02/19 04:06:32;;;;;;;4.85;1.60;;;;;;;;;;5011883;28;20028;-81
2022/02/19 04:08:58;;;;;;;6.03;1.48;;;;;;;;;;5011931;28;20033;-78
2022/02/19 04:11:24;;;;;;;6.07;1.58;;;;;;;;;;5025558;28;20021;-79
2022/02/19 04:13:50;;;;;;;6.20;1.38;;;;;;;;;;5031308;28;20080;-77
2022/02/19 04:16:16;;;;;;;4.60;1.40;;;;;;;;;;5030839;28;20381;-80
2022/02/19 04:18:42;;;;;;;5.45;1.27;;;;;;;;;;5029123;28;20037;-79
2022/02/19 04:21:08;;;;;;;6.28;1.48;;;;;;;;;;5030935;28;20030;-76
2022/02/19 04:23:35;;;;;;;5.13;1.50;;;;;;;;;;5031191;28;20428;-78
2022/02/19 04:26:01;;;;;;;4.53;1.08;;;;;;;;;;5031007;28;20029;-77
2022/02/19 04:28:27;;;;;;;5.80;1.45;;;;;;;;;;5031213;28;20029;-77
2022/02/19 04:30:54;;;;;;;5.97;1.35;;;;;;;;;;5027055;28;20159;-78
2022/02/19 04:33:20;;;;;;;7.05;1.77;;;;;;;;;;5031174;28;20032;-78
2022/02/19 04:35:46;;;;;;;4.78;1.30;;;;;;;;;;5031103;28;20033;-77
2022/02/19 04:38:16;;;;;;;6.65;1.42;;;;;;;;;;5031032;28;20531;-79
2022/02/19 04:40:42;;;;;;;6.80;1.40;;;;;;;;;;5031180;28;20429;-80
2022/02/19 04:43:08;;;;;;;6.40;1.20;;;;;;;;;;5034619;28;20124;-78
2022/02/19 04:45:35;;;;;;;5.65;1.52;;;;;;;;;;5034732;28;20026;-77
2022/02/19 04:48:01;;;;;;;8.43;1.73;;;;;;;;;;5033979;28;20029;-79
2022/02/19 04:50:27;;;;;;;4.68;1.50;;;;;;;;;;5032149;28;20075;-78
2022/02/19 04:52:53;;;;;;;5.82;1.60;;;;;;;;;;5014742;28;20029;-78
2022/02/19 04:55:19;;;;;;;7.88;1.60;;;;;;;;;;5014289;28;20029;-78
2022/02/19 04:57:45;;;;;;;4.90;1.40;;;;;;;;;;5014719;28;20367;-77
2022/02/19 05:00:12;;;;;;;5.75;1.25;;;;;;;;;;5022316;28;20104;-78
2022/02/19 05:02:38;;;;;;;6.90;1.65;;;;;;;;;;5032359;28;20033;-77
2022/02/19 05:05:05;;;;;;;5.70;1.48;;;;;;;;;;5034136;28;20022;-77
2022/02/19 05:07:31;;;;;;;5.28;1.55;;;;;;;;;;5034439;28;20037;-77
2022/02/19 05:09:57;;;;;;;7.00;1.52;;;;;;;;;;5033738;28;20021;-77
2022/02/19 05:12:23;;;;;;;6.03;1.30;;;;;;;;;;5034162;28;20030;-78
2022/02/19 05:14:49;;;;;;;5.97;1.60;;;;;;;;;;5015815;28;20030;-76
2022/02/19 05:17:15;;;;;;;6.70;1.75;;;;;;;;;;5013996;28;20022;-78
2022/02/19 05:19:41;;;;;;;5.50;1.10;;;;;;;;;;5015329;28;20109;-77
2022/02/19 05:22:07;;;;;;;6.60;1.40;;;;;;;;;;5032710;28;20041;-76
2022/02/19 05:24:33;;;;;;;5.32;1.15;;;;;;;;;;5032393;28;20025;-77
2022/02/19 05:27:00;;;;;;;6.05;1.05;;;;;;;;;;5014037;28;20057;-77
2022/02/19 05:29:26;;;;;;;5.15;1.35;;;;;;;;;;5013885;28;20030;-77
2022/02/19 05:31:52;;;;;;;6.93;1.60;;;;;;;;;;5014721;28;20037;-77
2022/02/19 05:34:18;;;;;;;7.78;1.83;;;;;;;;;;5013860;28;20101;-77
2022/02/19 05:36:46;;;;;;;4.95;1.33;;;;;;;;;;5013817;28;20080;-77
2022/02/19 05:39:12;;;;;;;4.90;1.50;;;;;;;;;;5013594;28;20069;-77
2022/02/19 05:41:40;;;;;;;9.52;2.03;;;;;;;;;;5013546;28;20062;-77
2022/02/19 05:44:06;;;;;;;5.75;1.48;;;;;;;;;;5013665;28;20037;-78
2022/02/19 05:46:33;;;;;;;6.03;1.33;;;;;;;;;;5013968;28;20029;-76
2022/02/19 05:48:59;;;;;;;9.75;2.17;;;;;;;;;;5031142;28;20155;-77
2022/02/19 05:51:25;;;;;;;6.50;1.80;;;;;;;;;;5025459;28;20064;-79
2022/02/19 05:53:51;;;;;;;5.47;1.20;;;;;;;;;;5027508;28;20064;-77
2022/02/19 05:56:17;;;;;;;8.90;2.00;;;;;;;;;;5021508;28;20457;-75
2022/02/19 05:58:43;;;;;;;6.05;1.35;;;;;;;;;;5022522;28;20029;-76
2022/02/19 06:01:10;;;;;;;6.32;1.40;;;;;;;;;;5027668;28;20037;-79
2022/02/19 06:03:36;;;;;;;5.80;1.45;;;;;;;;;;5027492;28;20489;-79
2022/02/19 06:06:02;;;;;;;5.43;1.73;;;;;;;;;;5033330;28;20021;-77
2022/02/19 06:08:28;;;;;;;9.07;1.88;;;;;;;;;;5013509;28;20051;-77
2022/02/19 06:10:54;;;;;;;7.15;1.90;;;;;;;;;;5015417;28;20025;-76
2022/02/19 06:13:20;;;;;;;6.45;1.60;;;;;;;;;;5032590;28;20031;-80
2022/02/19 06:15:46;;;;;;;4.53;1.30;;;;;;;;;;5032976;28;20029;-77
2022/02/19 06:18:12;;;;;;;6.20;1.65;;;;;;;;;;5032917;28;20022;-76
2022/02/19 06:20:38;;;;;;;3.78;1.35;;;;;;;;;;5032655;28;20032;-77
2022/02/19 06:23:04;;;;;;;5.10;1.30;;;;;;;;;;5015358;28;20033;-76
2022/02/19 06:25:30;;;;;;;4.38;1.20;;;;;;;;;;5014939;28;20044;-78
2022/02/19 06:27:56;;;;;;;5.25;1.52;;;;;;;;;;5014811;28;20037;-76
2022/02/19 06:30:22;;;;;;;6.13;1.60;;;;;;;;;;5032568;28;20017;-78
2022/02/19 06:32:48;;;;;;;6.43;1.52;;;;;;;;;;5032593;28;20049;-77
2022/02/19 06:35:14;;;;;;;5.47;0.98;;;;;;;;;;5032459;28;20061;-77
2022/02/19 06:37:42;;;;;;;6.85;1.40;;;;;;;;;;5023674;28;20536;-75
2022/02/19 06:40:09;;;;;;;6.07;1.58;;;;;;;;;;5012539;28;20045;-76
2022/02/19 06:42:36;;;;;;;4.88;1.25;;;;;;;;;;5012951;28;20500;-76
2022/02/19 06:45:02;;;;;;;7.60;1.58;;;;;;;;;;5011274;28;20388;-77
2022/02/19 06:47:28;;;;;;;5.75;1.80;;;;;;;;;;5012635;28;20025;-80
2022/02/19 06:49:54;;;;;;;4.35;1.25;;;;;;;;;;5013119;28;20534;-80
2022/02/19 06:52:20;;;;;;;5.57;1.20;;;;;;;;;;5014626;28;20018;-81
2022/02/19 06:54:46;;;;;;;4.90;1.55;;;;;;;;;;5012522;28;20033;-81
2022/02/19 06:57:14;;;;;;;5.45;1.75;;;;;;;;;;5012373;28;20385;-80
2022/02/19 06:59:43;;;;;;;4.90;1.40;;;;;;;;;;5012379;28;20456;-80
2022/02/19 07:02:09;;;;;;;5.72;1.50;;;;;;;;;;5012458;28;20034;-76
2022/02/19 07:04:35;;;;;;;6.57;1.55;;;;;;;;;;5012020;28;20458;-80
2022/02/19 07:07:01;;;;;;;5.32;1.45;;;;;;;;;;5012248;28;20030;-80
2022/02/19 07:09:27;;;;;;;7.20;1.55;;;;;;;;;;5012204;28;20535;-78
2022/02/19 07:11:54;;;;;;;2.83;0.98;;;;;;;;;;5014048;28;20030;-81
2022/02/19 07:14:20;;;;;;;4.07;1.40;;;;;;;;;;5003773;28;20022;-81
2022/02/19 07:16:47;;;;;;;4.78;1.70;;;;;;;;;;5011892;28;20022;-79
2022/02/19 07:19:13;;;;;;;5.10;1.40;;;;;;;;;;5028555;28;20104;-78
2022/02/19 07:21:39;;;;;;;7.15;1.52;;;;;;;;;;5031447;28;20115;-80
2022/02/19 07:24:06;;;;;;;4.88;1.33;;;;;;;;;;5014311;28;20040;-77
2022/02/19 07:26:32;;;;;;;5.15;1.10;;;;;;;;;;5013947;28;20035;-77
2022/02/19 07:28:58;;;;;;;3.90;1.05;;;;;;;;;;5010354;28;20027;-78
2022/02/19 07:31:24;;;;;;;3.58;1.08;;;;;;;;;;5013748;28;20045;-76
2022/02/19 07:33:50;;;;;;;5.50;1.23;;;;;;;;;;5020078;28;20034;-76
2022/02/19 07:36:16;;;;;;;5.82;1.23;;;;;;;;;;5011866;28;20064;-77
2022/02/19 07:38:42;;;;;;;6.72;1.40;;;;;;;;;;5011721;28;20021;-80
2022/02/19 07:41:08;;;;;;;7.43;1.10;;;;;;;;;;5012020;28;20064;-76
2022/02/19 07:43:34;;;;;;;5.43;1.45;;;;;;;;;;5012714;28;20097;-76
2022/02/19 07:46:01;;;;;;;6.63;1.50;;;;;;;;;;5011686;28;20462;-76
2022/02/19 07:48:27;;;;;;;6.32;1.75;;;;;;;;;;5011724;28;20477;-79
2022/02/19 07:59:07;;;;;;;7.20;1.45;;;;;;;;;;5012226;28;20081;-79
2022/02/19 08:01:36;;;;;;;5.70;1.75;;;;;;;;;;5010401;28;20042;-77
2022/02/19 08:04:02;;;;;;;3.90;1.17;;;;;;;;;;5013190;28;20392;-80
2022/02/19 08:06:28;;;;;;;5.57;1.15;;;;;;;;;;5014084;28;20034;-78
2022/02/19 08:08:54;;;;;;;4.60;0.90;;;;;;;;;;5021389;28;20432;-82
2022/02/19 08:11:20;;;;;;;3.63;1.35;;;;;;;;;;5019057;28;20030;-81
2022/02/19 08:13:46;;;;;;;3.90;1.27;;;;;;;;;;5021955;28;20022;-79
2022/02/19 08:16:13;;;;;;;7.05;1.60;;;;;;;;;;5024549;28;20041;-76
2022/02/19 08:18:39;;;;;;;5.43;1.42;;;;;;;;;;5030737;28;20026;-79
2022/02/19 08:21:05;;;;;;;4.63;1.15;;;;;;;;;;5013416;28;20038;-76
2022/02/19 08:23:31;;;;;;;7.00;1.50;;;;;;;;;;5021720;28;20038;-78
2022/02/19 08:25:58;;;;;;;6.97;1.38;;;;;;;;;;5035041;28;20029;-76
2022/02/19 08:28:24;;;;;;;8.63;1.52;;;;;;;;;;5024997;28;20034;-80
2022/02/19 08:30:52;;;;;;;6.78;1.13;;;;;;;;;;5013821;28;20026;-77
2022/02/19 08:33:18;;;;;;;6.07;1.67;;;;;;;;;;5015306;28;20026;-76
2022/02/19 08:35:44;;;;;;;6.50;1.45;;;;;;;;;;5015184;28;20027;-81
2022/02/19 08:38:11;;;;;;;6.93;1.00;;;;;;;;;;5013663;28;20037;-78
2022/02/19 08:40:37;;;;;;;7.88;1.30;;;;;;;;;;5014529;28;20065;-80
2022/02/19 08:43:04;;;;;;;10.73;1.20;;;;;;;;;;5013624;28;20034;-81
2022/02/19 08:45:30;;;;;;;3.92;0.95;;;;;;;;;;5013673;28;20026;-82
2022/02/19 08:48:01;;;;;;;6.57;1.35;;;;;;;;;;5014802;28;20053;-81
2022/02/19 08:50:28;;;;;;;6.80;1.30;;;;;;;;;;5020151;28;20543;-78
2022/02/19 08:52:54;;;;;;;4.45;1.30;;;;;;;;;;5034393;28;20028;-76
2022/02/19 08:55:20;;;;;;;9.85;1.38;;;;;;;;;;5034404;28;20380;-77
2022/02/19 08:57:46;;;;;;;4.70;1.27;;;;;;;;;;5009299;28;20030;-76
2022/02/19 09:00:13;;;;;;;2.90;1.20;;;;;;;;;;5023702;28;20512;-77
2022/02/19 09:02:39;;;;;;;5.95;1.33;;;;;;;;;;5018546;28;20040;-80
2022/02/19 09:05:07;;;;;;;6.80;1.38;;;;;;;;;;5015404;28;20436;-78
2022/02/19 09:07:36;;;;;;;5.28;1.17;;;;;;;;;;5015411;28;20681;-78
2022/02/19 09:10:04;;;;;;;4.60;1.33;;;;;;;;;;5008516;28;20022;-79
2022/02/19 09:12:31;;;;;;;5.90;1.00;;;;;;;;;;5028403;28;20036;-77
2022/02/19 09:14:58;;;;;;;5.18;2.28;;;;;;;;;;5011577;28;20040;-77
2022/02/19 09:17:24;;;;;;;8.95;5.45;;;;;;;;;;4999298;28;20021;-77
2022/02/19 09:19:50;;;;;;;9.63;6.30;;;;;;;;;;5014021;28;20108;-77
2022/02/19 09:22:16;;;;;;;12.20;6.15;;;;;;;;;;5017607;28;20553;-78
2022/02/19 09:24:42;;;;;;;9.95;5.30;;;;;;;;;;5026783;28;20021;-80
2022/02/19 09:27:10;;;;;;;12.82;4.90;;;;;;;;;;5038106;28;20108;-82
2022/02/19 09:29:36;;;;;;;7.35;3.72;;;;;;;;;;5016691;28;20030;-77
2022/02/19 09:32:02;;;;;;;8.45;3.70;;;;;;;;;;5028379;28;20018;-81
2022/02/19 09:34:28;;;;;;;7.00;3.47;;;;;;;;;;5031766;28;20029;-80
2022/02/19 09:36:54;;;;;;;8.45;3.13;;;;;;;;;;5028370;28;20096;-81
2022/02/19 09:39:20;;;;;;;9.85;3.00;;;;;;;;;;5008840;28;20116;-79
2022/02/19 09:41:47;;;;;;;5.72;2.40;;;;;;;;;;5010986;28;20057;-79
2022/02/19 09:44:14;;;;;;;5.75;2.15;;;;;;;;;;5026117;28;20105;-80
2022/02/19 09:46:41;;;;;;;6.25;2.38;;;;;;;;;;5006112;28;20032;-80
2022/02/19 09:49:08;;;;;;;5.18;2.17;;;;;;;;;;4999154;28;20088;-80
2022/02/19 09:51:34;;;;;;;5.53;2.10;;;;;;;;;;5025078;28;20026;-78
2022/02/19 09:54:01;;;;;;;6.53;2.10;;;;;;;;;;5026001;28;20037;-83
2022/02/19 09:56:28;;;;;;;7.90;1.95;;;;;;;;;;5023244;28;20037;-79
2022/02/19 09:59:00;;;;;;;4.28;1.70;;;;;;;;;;5023753;28;20084;-78
2022/02/19 10:01:27;;;;;;;5.07;1.75;;;;;;;;;;5022217;28;20025;-77
2022/02/19 10:03:57;;;;;;;3.55;1.30;;;;;;;;;;5003360;28;20030;-79
2022/02/19 10:06:27;;;;;;;3.83;1.65;;;;;;;;;;5027971;28;20026;-78
2022/02/19 10:09:12;;;;;;;5.40;1.63;;;;;;;;;;5014034;28;20500;-79
2022/02/19 10:11:38;;;;;;;3.40;1.10;;;;;;;;;;5006200;28;20080;-79
2022/02/19 10:14:24;;;;;;;6.20;1.38;;;;;;;;;;5000434;28;20883;-79
2022/02/19 10:17:08;;;;;;;4.18;1.50;;;;;;;;;;5002766;28;20477;-78
2022/02/19 10:20:05;;;;;;;4.57;1.45;;;;;;;;;;5012327;28;20044;-78
2022/02/19 10:22:31;;;;;;;5.15;1.75;;;;;;;;;;4999079;28;20108;-78
2022/02/19 10:24:59;;;;;;;4.45;1.30;;;;;;;;;;5025203;28;20021;-78
2022/02/19 10:27:48;;;;;;;5.55;1.67;;;;;;;;;;5006289;28;20025;-77
2022/02/19 10:30:17;;;;;;;3.70;1.17;;;;;;;;;;5028512;28;20560;-78
2022/02/19 10:32:47;;;;;;;6.68;1.30;;;;;;;;;;5020959;28;20022;-77
2022/02/19 10:35:15;;;;;;;3.83;1.45;;;;;;;;;;5006978;28;20147;-78
2022/02/19 10:37:43;;;;;;;6.07;1.30;;;;;;;;;;5028263;28;20032;-78
2022/02/19 10:40:25;;;;;;;5.20;1.15;;;;;;;;;;5012353;28;20038;-80
2022/02/19 10:42:53;;;;;;;6.30;1.83;;;;;;;;;;5002168;28;20049;-77
2022/02/19 10:45:19;;;;;;;4.50;1.15;;;;;;;;;;5025668;28;20037;-77
2022/02/19 10:47:46;;;;;;;4.20;1.60;;;;;;;;;;5029162;28;20025;-80
2022/02/19 10:50:13;;;;;;;4.15;1.58;;;;;;;;;;5002125;28;20088;-78
2022/02/19 10:52:40;;;;;;;3.58;1.05;;;;;;;;;;5027899;28;20081;-82
2022/02/19 10:55:23;;;;;;;5.00;1.58;;;;;;;;;;5012429;28;20083;-80
2022/02/19 10:57:51;;;;;;;7.72;1.55;;;;;;;;;;5010358;28;20053;-78
2022/02/19 11:00:21;;;;;;;5.10;1.17;;;;;;;;;;5019887;28;20037;-78
2022/02/19 11:02:49;;;;;;;3.30;1.38;;;;;;;;;;5020824;28;20050;-82
2022/02/19 11:05:17;;;;;;;5.93;1.58;;;;;;;;;;5017962;28;20112;-81
2022/02/19 11:07:44;;;;;;;4.13;1.55;;;;;;;;;;5007555;28;20078;-83
2022/02/19 11:10:12;;;;;;;7.18;1.50;;;;;;;;;;5022734;28;20021;-83
2022/02/19 11:12:41;;;;;;;7.30;1.05;;;;;;;;;;5012176;28;20029;-80
2022/02/19 11:15:08;;;;;;;4.72;0.95;;;;;;;;;;5012624;28;20489;-82
2022/02/19 11:17:36;;;;;;;4.53;1.40;;;;;;;;;;5008830;28;20025;-78
2022/02/19 11:20:04;;;;;;;6.05;1.00;;;;;;;;;;5028024;28;20068;-79
2022/02/19 11:22:31;;;;;;;7.03;1.55;;;;;;;;;;5007559;28;20535;-82
2022/02/19 11:24:58;;;;;;;7.10;1.35;;;;;;;;;;5013341;28;20026;-82
2022/02/19 11:27:27;;;;;;;7.53;1.42;;;;;;;;;;5012840;28;20021;-78
2022/02/19 11:29:53;;;;;;;5.95;1.10;;;;;;;;;;5012849;28;20029;-78
2022/02/19 11:32:19;;;;;;;5.63;1.67;;;;;;;;;;5030716;28;20022;-77
2022/02/19 11:34:52;;;;;;;5.63;1.33;;;;;;;;;;5013129;28;20116;-76
2022/02/19 11:37:24;;;;;;;7.07;1.50;;;;;;;;;;5012911;28;20045;-79
2022/02/19 11:39:57;;;;;;;6.28;1.52;;;;;;;;;;5012889;28;20060;-79
2022/02/19 11:42:35;;;;;;;4.45;1.48;;;;;;;;;;5013672;28;20060;-78
2022/02/19 11:45:15;;;;;;;4.65;1.90;;;;;;;;;;5013770;28;20029;-77
2022/02/19 11:47:42;;;;;;;9.77;1.90;;;;;;;;;;5013862;28;20068;-78
2022/02/19 11:50:18;;;;;;;5.15;1.20;;;;;;;;;;5033622;28;20416;-77
2022/02/19 11:52:45;;;;;;;5.53;1.52;;;;;;;;;;5017852;28;20041;-78
2022/02/19 11:55:27;;;;;;;4.68;1.40;;;;;;;;;;5017913;28;20033;-78
2022/02/19 11:58:03;;;;;;;4.47;1.38;;;;;;;;;;5017828;28;20036;-77
2022/02/19 12:00:42;;;;;;;4.47;1.52;;;;;;;;;;5035557;28;20493;-78
2022/02/19 12:03:20;;;;;;;6.72;1.02;;;;;;;;;;5017606;28;20104;-78
2022/02/19 12:06:06;;;;;;;4.28;1.35;;;;;;;;;;5017584;28;20028;-80
2022/02/19 12:08:55;;;;;;;5.28;1.73;;;;;;;;;;5017567;28;20025;-77
2022/02/19 12:11:25;;;;;;;5.80;1.55;;;;;;;;;;4989005;28;20100;-79
2022/02/19 12:13:55;;;;;;;5.05;1.48;;;;;;;;;;5017818;28;20033;-78
2022/02/19 12:17:03;;;;;;;3.75;1.05;;;;;;;;;;5017846;28;20043;-80
2022/02/19 12:19:42;;;;;;;5.53;1.30;;;;;;;;;;5031398;28;20041;-77
2022/02/19 12:22:08;;;;;;;;;;;;;;;;;;5017309;28;20038;-78
2022/02/19 12:24:35;;;;;;;;;;;;;;;;;;5033407;28;19909;-82
2022/02/19 12:27:16;;;;;;;2.88;1.20;;;;;;;;;;5033124;28;20066;-80
2022/02/19 12:29:46;;;;;;;5.38;1.38;;;;;;;;;;5034382;28;20022;-77
2022/02/19 12:32:22;;;;;;;4.60;1.55;;;;;;;;;;4997117;28;20409;-78
2022/02/19 12:34:55;;;;;;;6.85;1.42;;;;;;;;;;5013958;28;20121;-81
2022/02/19 12:37:22;;;;;;;5.90;1.48;;;;;;;;;;5034749;28;20072;-78
2022/02/19 12:39:52;;;;;;;5.88;1.83;;;;;;;;;;5013247;28;20092;-80
2022/02/19 12:42:19;;;;;;;8.15;2.63;;;;;;;;;;5023339;28;20108;-79
2022/02/19 12:44:47;;;;;;;51.83;17.05;;;;;;;;;;5013414;28;20077;-78
2022/02/19 12:47:14;;;;;;;33.90;9.75;;;;;;;;;;5030105;28;20104;-78
2022/02/19 12:49:42;;;;;;;15.73;5.10;;;;;;;;;;5013154;28;20034;-79
2022/02/19 12:52:08;;;;;;;15.27;4.97;;;;;;;;;;5022132;28;20105;-83
2022/02/19 12:54:38;;;;;;;12.40;3.97;;;;;;;;;;5012972;28;20504;-80
2022/02/19 12:57:05;;;;;;;11.63;4.15;;;;;;;;;;5027632;28;20048;-77
2022/02/19 12:59:31;;;;;;;16.10;5.82;;;;;;;;;;5012171;28;20459;-77
2022/02/19 13:02:02;;;;;;;24.33;10.05;;;;;;;;;;5011873;28;20057;-77
2022/02/19 13:04:32;;;;;;;51.25;15.80;;;;;;;;;;5038404;28;20488;-76
2022/02/19 13:06:58;;;;;;;26.17;7.32;;;;;;;;;;5040527;28;20116;-76
2022/02/19 13:09:24;;;;;;;25.48;8.23;;;;;;;;;;5028346;28;20033;-77
2022/02/19 13:11:52;;;;;;;23.55;7.32;;;;;;;;;;5029343;28;20065;-76
2022/02/19 13:14:18;;;;;;;32.22;8.48;;;;;;;;;;5014424;28;20060;-77
2022/02/19 13:17:00;;;;;;;28.02;8.07;;;;;;;;;;5022888;28;20090;-76
2022/02/19 13:19:27;;;;;;;35.45;8.02;;;;;;;;;;5036406;28;20025;-77
2022/02/19 13:22:04;;;;;;;33.42;7.55;;;;;;;;;;5017283;28;20040;-76
2022/02/19 13:24:30;;;;;;;26.73;7.10;;;;;;;;;;5024994;28;20029;-77
2022/02/19 13:27:09;;;;;;;32.65;6.70;;;;;;;;;;5025712;28;20109;-77
2022/02/19 13:29:35;;;;;;;17.30;5.40;;;;;;;;;;5016840;28;20037;-78
2022/02/19 13:32:01;;;;;;;19.52;5.68;;;;;;;;;;5029526;28;20022;-77
2022/02/19 13:34:28;;;;;;;16.77;5.15;;;;;;;;;;5023543;28;20061;-79
2022/02/19 13:36:54;;;;;;;17.95;4.95;;;;;;;;;;5022712;28;20029;-77
2022/02/19 13:39:20;;;;;;;16.40;4.60;;;;;;;;;;5014000;28;20037;-77
2022/02/19 13:41:50;;;;;;;19.20;4.90;;;;;;;;;;5030981;28;20042;-79
2022/02/19 13:44:16;;;;;;;22.15;4.13;;;;;;;;;;5013959;28;20082;-77
2022/02/19 13:46:42;;;;;;;14.05;3.85;;;;;;;;;;5027364;28;20433;-78
2022/02/19 13:49:08;;;;;;;18.58;3.95;;;;;;;;;;5025864;28;20037;-78
2022/02/19 13:51:34;;;;;;;15.50;3.67;;;;;;;;;;5031080;28;20035;-78
2022/02/19 13:54:14;;;;;;;14.05;3.50;;;;;;;;;;5034006;28;20096;-79
2022/02/19 13:56:40;;;;;;;11.63;2.95;;;;;;;;;;5022797;28;20033;-79
2022/02/19 13:59:06;;;;;;;11.15;3.15;;;;;;;;;;5025278;28;20097;-77
2022/02/19 14:01:41;;;;;;;14.15;3.00;;;;;;;;;;5021621;28;20481;-79
2022/02/19 14:04:07;;;;;;;8.23;2.42;;;;;;;;;;5016468;28;20021;-77
2022/02/19 14:06:36;;;;;;;10.43;2.78;;;;;;;;;;5008687;28;20034;-79
2022/02/19 14:09:19;;;;;;;11.52;2.95;;;;;;;;;;5001832;28;20025;-77
2022/02/19 14:11:52;;;;;;;11.23;2.90;;;;;;;;;;5028576;28;20022;-78
2022/02/19 14:14:26;;;;;;;7.85;2.35;;;;;;;;;;5001623;28;20051;-79
2022/02/19 14:16:57;;;;;;;11.48;2.20;;;;;;;;;;5020510;28;20071;-80
2022/02/19 14:19:23;;;;;;;5.53;2.03;;;;;;;;;;5028390;28;20029;-79
2022/02/19 14:22:00;;;;;;;12.48;2.20;;;;;;;;;;5027474;28;20030;-78
2022/02/19 14:24:26;;;;;;;5.05;1.73;;;;;;;;;;5017689;28;20030;-77
2022/02/19 14:27:12;;;;;;;7.50;2.00;;;;;;;;;;5009653;28;20116;-78
2022/02/19 14:29:39;;;;;;;8.55;2.30;;;;;;;;;;5019608;28;20029;-78
2022/02/19 14:32:06;;;;;;;9.20;2.15;;;;;;;;;;5026157;28;20043;-77
2022/02/19 14:34:33;;;;;;;7.13;2.00;;;;;;;;;;5003231;28;20614;-77
2022/02/19 14:36:59;;;;;;;8.10;2.10;;;;;;;;;;5031290;28;20083;-77
2022/02/19 14:39:28;;;;;;;6.97;2.15;;;;;;;;;;5016072;28;20116;-78
2022/02/19 14:41:54;;;;;;;10.63;2.08;;;;;;;;;;5015774;28;20503;-77
2022/02/19 14:44:22;;;;;;;6.95;1.98;;;;;;;;;;5031318;28;20025;-78
2022/02/19 14:46:48;;;;;;;8.55;1.60;;;;;;;;;;5008892;28;20115;-77
2022/02/19 14:49:14;;;;;;;6.50;1.83;;;;;;;;;;5025685;28;20028;-77
2022/02/19 14:51:40;;;;;;;5.00;1.90;;;;;;;;;;5023302;28;20037;-78
2022/02/19 14:54:06;;;;;;;6.43;1.42;;;;;;;;;;5034502;28;20018;-78